sensor_id;sensor_type;location;lat;lon;timestamp;temperature;humidity
9849;DHT22;4963;51.444;6.528;2023-02-01T00:00:13;6.10;99.90
9849;DHT22;4963;51.444;6.528;2023-02-01T00:02:40;6.10;99.90
9849;DHT22;4963;51.444;6.528;2023-02-01T00:05:08;6.20;99.90
9849;DHT22;4963;51.444;6.528;2023-02-01T00:07:36;6.20;99.90
9849;DHT22;4963;51.444;6.528;2023-02-01T00:10:05;6.20;99.90
9849;DHT22;4963;51.444;6.528;2023-02-01T00:12:32;6.20;99.90
9849;DHT22;4963;51.444;6.528;2023-02-01T00:14:59;6.20;99.90
9849;DHT22;4963;51.444;6.528;2023-02-01T00:17:26;6.30;99.90
9849;DHT22;4963;51.444;6.528;2023-02-01T00:19:52;6.20;99.90
9849;DHT22;4963;51.444;6.528;2023-02-01T00:22:19;6.30;99.90
9849;DHT22;4963;51.444;6.528;2023-02-01T00:24:47;6.30;99.90
9849;DHT22;4963;51.444;6.528;2023-02-01T00:27:14;6.30;99.90
9849;DHT22;4963;51.444;6.528;2023-02-01T00:29:43;6.30;99.90
9849;DHT22;4963;51.444;6.528;2023-02-01T00:32:10;6.30;99.90
9849;DHT22;4963;51.444;6.528;2023-02-01T00:34:37;6.20;99.90
9849;DHT22;4963;51.444;6.528;2023-02-01T00:37:04;6.20;99.90
9849;DHT22;4963;51.444;6.528;2023-02-01T00:39:31;6.30;99.90
9849;DHT22;4963;51.444;6.528;2023-02-01T00:41:59;6.30;99.90
9849;DHT22;4963;51.444;6.528;2023-02-01T00:44:26;6.30;99.90
9849;DHT22;4963;51.444;6.528;2023-02-01T00:46:53;6.30;99.90
9849;DHT22;4963;51.444;6.528;2023-02-01T00:52:42;6.30;99.90
9849;DHT22;4963;51.444;6.528;2023-02-01T00:55:09;6.30;99.90
9849;DHT22;4963;51.444;6.528;2023-02-01T00:57:37;6.40;99.90
9849;DHT22;4963;51.444;6.528;2023-02-01T01:00:04;6.40;99.90
9849;DHT22;4963;51.444;6.528;2023-02-01T01:02:31;6.40;99.90
9849;DHT22;4963;51.444;6.528;2023-02-01T01:04:58;6.40;99.90
9849;DHT22;4963;51.444;6.528;2023-02-01T01:07:25;6.30;99.90
9849;DHT22;4963;51.444;6.528;2023-02-01T01:09:51;6.30;99.90
9849;DHT22;4963;51.444;6.528;2023-02-01T01:12:18;6.30;99.90
9849;DHT22;4963;51.444;6.528;2023-02-01T01:14:46;6.30;99.90
9849;DHT22;4963;51.444;6.528;2023-02-01T01:17:13;6.30;99.90
9849;DHT22;4963;51.444;6.528;2023-02-01T01:19:40;6.30;99.90
9849;DHT22;4963;51.444;6.528;2023-02-01T01:22:07;6.40;99.90
9849;DHT22;4963;51.444;6.528;2023-02-01T01:24:34;6.30;99.90
9849;DHT22;4963;51.444;6.528;2023-02-01T01:27:01;6.40;99.90
9849;DHT22;4963;51.444;6.528;2023-02-01T01:29:28;6.40;99.90
9849;DHT22;4963;51.444;6.528;2023-02-01T01:31:56;6.30;99.90
9849;DHT22;4963;51.444;6.528;2023-02-01T01:34:23;6.30;99.90
9849;DHT22;4963;51.444;6.528;2023-02-01T01:36:49;6.30;99.90
9849;DHT22;4963;51.444;6.528;2023-02-01T01:39:16;6.30;99.90
9849;DHT22;4963;51.444;6.528;2023-02-01T01:41:43;6.30;99.90
9849;DHT22;4963;51.444;6.528;2023-02-01T01:47:12;6.20;99.90
9849;DHT22;4963;51.444;6.528;2023-02-01T01:49:40;6.20;99.90
9849;DHT22;4963;51.444;6.528;2023-02-01T01:52:07;6.10;99.90
9849;DHT22;4963;51.444;6.528;2023-02-01T01:54:37;6.10;99.90
9849;DHT22;4963;51.444;6.528;2023-02-01T01:57:07;6.20;99.90
9849;DHT22;4963;51.444;6.528;2023-02-01T01:59:37;6.10;99.90
9849;DHT22;4963;51.444;6.528;2023-02-01T02:02:05;6.20;99.90
9849;DHT22;4963;51.444;6.528;2023-02-01T02:04:34;6.20;99.90
9849;DHT22;4963;51.444;6.528;2023-02-01T02:07:04;6.10;99.90
9849;DHT22;4963;51.444;6.528;2023-02-01T02:09:31;6.10;99.90
9849;DHT22;4963;51.444;6.528;2023-02-01T02:11:58;6.00;99.90
9849;DHT22;4963;51.444;6.528;2023-02-01T02:14:26;6.00;99.90
9849;DHT22;4963;51.444;6.528;2023-02-01T02:17:01;6.00;99.90
9849;DHT22;4963;51.444;6.528;2023-02-01T02:23:01;6.00;99.90
9849;DHT22;4963;51.444;6.528;2023-02-01T02:26:09;5.90;99.90
9849;DHT22;4963;51.444;6.528;2023-02-01T02:29:07;5.90;99.90
9849;DHT22;4963;51.444;6.528;2023-02-01T02:31:53;5.90;99.90
9849;DHT22;4963;51.444;6.528;2023-02-01T02:34:26;5.90;99.90
9849;DHT22;4963;51.444;6.528;2023-02-01T02:37:02;5.80;99.90
9849;DHT22;4963;51.444;6.528;2023-02-01T02:39:40;5.80;99.90
9849;DHT22;4963;51.444;6.528;2023-02-01T02:42:14;5.70;99.90
9849;DHT22;4963;51.444;6.528;2023-02-01T02:45:05;5.70;99.90
9849;DHT22;4963;51.444;6.528;2023-02-01T02:47:54;5.70;99.90
9849;DHT22;4963;51.444;6.528;2023-02-01T02:50:27;5.80;99.90
9849;DHT22;4963;51.444;6.528;2023-02-01T02:53:16;5.70;99.90
9849;DHT22;4963;51.444;6.528;2023-02-01T02:56:03;5.70;99.90
9849;DHT22;4963;51.444;6.528;2023-02-01T02:58:50;5.70;99.90
9849;DHT22;4963;51.444;6.528;2023-02-01T03:01:35;5.80;99.90
9849;DHT22;4963;51.444;6.528;2023-02-01T03:04:21;5.70;99.90
9849;DHT22;4963;51.444;6.528;2023-02-01T03:06:50;5.70;99.90
9849;DHT22;4963;51.444;6.528;2023-02-01T03:09:22;5.70;99.90
9849;DHT22;4963;51.444;6.528;2023-02-01T03:11:54;5.60;99.90
9849;DHT22;4963;51.444;6.528;2023-02-01T03:14:41;5.60;99.90
9849;DHT22;4963;51.444;6.528;2023-02-01T03:17:13;5.60;99.90
9849;DHT22;4963;51.444;6.528;2023-02-01T03:19:43;5.60;99.90
9849;DHT22;4963;51.444;6.528;2023-02-01T03:22:18;5.60;99.90
9849;DHT22;4963;51.444;6.528;2023-02-01T03:24:48;5.60;99.90
9849;DHT22;4963;51.444;6.528;2023-02-01T03:27:21;5.60;99.90
9849;DHT22;4963;51.444;6.528;2023-02-01T03:29:53;5.60;99.90
9849;DHT22;4963;51.444;6.528;2023-02-01T03:32:21;5.60;99.90
9849;DHT22;4963;51.444;6.528;2023-02-01T03:34:48;5.60;99.90
9849;DHT22;4963;51.444;6.528;2023-02-01T03:37:21;5.70;99.90
9849;DHT22;4963;51.444;6.528;2023-02-01T03:39:56;5.70;99.90
9849;DHT22;4963;51.444;6.528;2023-02-01T03:42:28;5.80;99.90
9849;DHT22;4963;51.444;6.528;2023-02-01T03:45:00;5.80;99.90
9849;DHT22;4963;51.444;6.528;2023-02-01T03:47:30;5.70;99.90
9849;DHT22;4963;51.444;6.528;2023-02-01T03:50:03;5.80;99.90
9849;DHT22;4963;51.444;6.528;2023-02-01T03:52:36;5.80;99.90
9849;DHT22;4963;51.444;6.528;2023-02-01T03:55:05;5.70;99.90
9849;DHT22;4963;51.444;6.528;2023-02-01T03:57:36;5.70;99.90
9849;DHT22;4963;51.444;6.528;2023-02-01T04:00:06;5.70;99.90
9849;DHT22;4963;51.444;6.528;2023-02-01T04:02:34;5.70;99.90
9849;DHT22;4963;51.444;6.528;2023-02-01T04:05:01;5.60;99.90
9849;DHT22;4963;51.444;6.528;2023-02-01T04:07:27;5.60;99.90
9849;DHT22;4963;51.444;6.528;2023-02-01T04:09:56;5.60;99.90
9849;DHT22;4963;51.444;6.528;2023-02-01T04:12:22;5.60;99.90
9849;DHT22;4963;51.444;6.528;2023-02-01T04:14:49;5.70;99.90
9849;DHT22;4963;51.444;6.528;2023-02-01T04:17:16;5.60;99.90
9849;DHT22;4963;51.444;6.528;2023-02-01T04:19:44;5.60;99.90
9849;DHT22;4963;51.444;6.528;2023-02-01T04:22:10;5.60;99.90
9849;DHT22;4963;51.444;6.528;2023-02-01T04:24:37;5.60;99.90
9849;DHT22;4963;51.444;6.528;2023-02-01T04:27:05;5.60;99.90
9849;DHT22;4963;51.444;6.528;2023-02-01T04:29:32;5.60;99.90
9849;DHT22;4963;51.444;6.528;2023-02-01T04:31:59;5.60;99.90
9849;DHT22;4963;51.444;6.528;2023-02-01T04:34:26;5.60;99.90
9849;DHT22;4963;51.444;6.528;2023-02-01T04:36:53;5.60;99.90
9849;DHT22;4963;51.444;6.528;2023-02-01T04:39:19;5.60;99.90
9849;DHT22;4963;51.444;6.528;2023-02-01T04:41:46;5.60;99.90
9849;DHT22;4963;51.444;6.528;2023-02-01T04:44:16;5.60;99.90
9849;DHT22;4963;51.444;6.528;2023-02-01T04:46:44;5.60;99.90
9849;DHT22;4963;51.444;6.528;2023-02-01T04:49:11;5.60;99.90
9849;DHT22;4963;51.444;6.528;2023-02-01T04:51:38;5.70;99.90
9849;DHT22;4963;51.444;6.528;2023-02-01T04:54:05;5.70;99.90
9849;DHT22;4963;51.444;6.528;2023-02-01T04:56:33;5.60;99.90
9849;DHT22;4963;51.444;6.528;2023-02-01T04:59:01;5.60;99.90
9849;DHT22;4963;51.444;6.528;2023-02-01T05:01:29;5.60;99.90
9849;DHT22;4963;51.444;6.528;2023-02-01T05:03:56;5.60;99.90
9849;DHT22;4963;51.444;6.528;2023-02-01T05:06:23;5.60;99.90
9849;DHT22;4963;51.444;6.528;2023-02-01T05:08:50;5.50;99.90
9849;DHT22;4963;51.444;6.528;2023-02-01T05:11:17;5.50;99.90
9849;DHT22;4963;51.444;6.528;2023-02-01T05:13:58;5.50;99.90
9849;DHT22;4963;51.444;6.528;2023-02-01T05:16:25;5.50;99.90
9849;DHT22;4963;51.444;6.528;2023-02-01T05:18:54;5.50;99.90
9849;DHT22;4963;51.444;6.528;2023-02-01T05:21:20;5.50;99.90
9849;DHT22;4963;51.444;6.528;2023-02-01T05:23:47;5.40;99.90
9849;DHT22;4963;51.444;6.528;2023-02-01T05:26:32;5.40;99.90
9849;DHT22;4963;51.444;6.528;2023-02-01T05:28:59;5.50;99.90
9849;DHT22;4963;51.444;6.528;2023-02-01T05:31:26;5.40;99.90
9849;DHT22;4963;51.444;6.528;2023-02-01T05:33:54;5.50;99.90
9849;DHT22;4963;51.444;6.528;2023-02-01T05:36:21;5.40;99.90
9849;DHT22;4963;51.444;6.528;2023-02-01T05:38:48;5.40;99.90
9849;DHT22;4963;51.444;6.528;2023-02-01T05:41:14;5.40;99.90
9849;DHT22;4963;51.444;6.528;2023-02-01T05:43:41;5.50;99.90
9849;DHT22;4963;51.444;6.528;2023-02-01T05:46:08;5.40;99.90
9849;DHT22;4963;51.444;6.528;2023-02-01T05:48:36;5.40;99.90
9849;DHT22;4963;51.444;6.528;2023-02-01T05:51:04;5.40;99.90
9849;DHT22;4963;51.444;6.528;2023-02-01T05:53:31;5.40;99.90
9849;DHT22;4963;51.444;6.528;2023-02-01T05:55:57;5.30;99.90
9849;DHT22;4963;51.444;6.528;2023-02-01T05:58:24;5.30;99.90
9849;DHT22;4963;51.444;6.528;2023-02-01T06:00:51;5.30;99.90
9849;DHT22;4963;51.444;6.528;2023-02-01T06:03:18;5.30;99.90
9849;DHT22;4963;51.444;6.528;2023-02-01T06:05:46;5.30;99.90
9849;DHT22;4963;51.444;6.528;2023-02-01T06:08:14;5.30;99.90
9849;DHT22;4963;51.444;6.528;2023-02-01T06:10:42;5.30;99.90
9849;DHT22;4963;51.444;6.528;2023-02-01T06:13:09;5.30;99.90
9849;DHT22;4963;51.444;6.528;2023-02-01T06:15:36;5.30;99.90
9849;DHT22;4963;51.444;6.528;2023-02-01T06:18:03;5.30;99.90
9849;DHT22;4963;51.444;6.528;2023-02-01T06:20:30;5.40;99.90
9849;DHT22;4963;51.444;6.528;2023-02-01T06:22:57;5.40;99.90
9849;DHT22;4963;51.444;6.528;2023-02-01T06:25:25;5.40;99.90
9849;DHT22;4963;51.444;6.528;2023-02-01T06:27:52;5.40;99.90
9849;DHT22;4963;51.444;6.528;2023-02-01T06:30:19;5.40;99.90
9849;DHT22;4963;51.444;6.528;2023-02-01T06:32:50;5.40;99.90
9849;DHT22;4963;51.444;6.528;2023-02-01T06:35:19;5.50;99.90
9849;DHT22;4963;51.444;6.528;2023-02-01T06:37:45;5.50;99.90
9849;DHT22;4963;51.444;6.528;2023-02-01T06:40:13;5.50;99.90
9849;DHT22;4963;51.444;6.528;2023-02-01T06:42:41;5.40;99.90
9849;DHT22;4963;51.444;6.528;2023-02-01T06:45:08;5.50;99.90
9849;DHT22;4963;51.444;6.528;2023-02-01T06:47:35;5.50;99.90
9849;DHT22;4963;51.444;6.528;2023-02-01T06:50:02;5.50;99.90
9849;DHT22;4963;51.444;6.528;2023-02-01T06:52:29;5.50;99.90
9849;DHT22;4963;51.444;6.528;2023-02-01T06:54:56;5.50;99.90
9849;DHT22;4963;51.444;6.528;2023-02-01T06:57:23;5.60;99.90
9849;DHT22;4963;51.444;6.528;2023-02-01T06:59:52;5.50;99.90
9849;DHT22;4963;51.444;6.528;2023-02-01T07:02:18;5.50;99.90
9849;DHT22;4963;51.444;6.528;2023-02-01T07:04:47;5.60;99.90
9849;DHT22;4963;51.444;6.528;2023-02-01T07:07:13;5.50;99.90
9849;DHT22;4963;51.444;6.528;2023-02-01T07:09:40;5.50;99.90
9849;DHT22;4963;51.444;6.528;2023-02-01T07:12:07;5.60;99.90
9849;DHT22;4963;51.444;6.528;2023-02-01T07:14:34;5.60;99.90
9849;DHT22;4963;51.444;6.528;2023-02-01T07:17:02;5.60;99.90
9849;DHT22;4963;51.444;6.528;2023-02-01T07:19:29;5.60;99.90
9849;DHT22;4963;51.444;6.528;2023-02-01T07:21:55;5.60;99.90
9849;DHT22;4963;51.444;6.528;2023-02-01T07:24:22;5.60;99.90
9849;DHT22;4963;51.444;6.528;2023-02-01T07:26:49;5.60;99.90
9849;DHT22;4963;51.444;6.528;2023-02-01T07:29:16;5.60;99.90
9849;DHT22;4963;51.444;6.528;2023-02-01T07:31:43;5.60;99.90
9849;DHT22;4963;51.444;6.528;2023-02-01T07:34:11;5.60;99.90
9849;DHT22;4963;51.444;6.528;2023-02-01T07:36:38;5.70;99.90
9849;DHT22;4963;51.444;6.528;2023-02-01T07:39:05;5.60;99.90
9849;DHT22;4963;51.444;6.528;2023-02-01T07:41:31;5.60;99.90
9849;DHT22;4963;51.444;6.528;2023-02-01T07:43:58;5.60;99.90
9849;DHT22;4963;51.444;6.528;2023-02-01T07:46:25;5.60;99.90
9849;DHT22;4963;51.444;6.528;2023-02-01T07:48:52;5.70;99.90
9849;DHT22;4963;51.444;6.528;2023-02-01T07:51:20;5.60;99.90
9849;DHT22;4963;51.444;6.528;2023-02-01T07:53:47;5.70;99.90
9849;DHT22;4963;51.444;6.528;2023-02-01T07:56:15;5.70;99.90
9849;DHT22;4963;51.444;6.528;2023-02-01T07:58:43;5.60;99.90
9849;DHT22;4963;51.444;6.528;2023-02-01T08:01:14;5.70;99.90
9849;DHT22;4963;51.444;6.528;2023-02-01T08:03:46;5.60;99.90
9849;DHT22;4963;51.444;6.528;2023-02-01T08:06:13;5.60;99.90
9849;DHT22;4963;51.444;6.528;2023-02-01T08:08:41;5.60;99.90
9849;DHT22;4963;51.444;6.528;2023-02-01T08:11:08;5.70;99.90
9849;DHT22;4963;51.444;6.528;2023-02-01T08:13:35;5.70;99.90
9849;DHT22;4963;51.444;6.528;2023-02-01T08:16:04;5.70;99.90
9849;DHT22;4963;51.444;6.528;2023-02-01T08:18:31;5.70;99.90
9849;DHT22;4963;51.444;6.528;2023-02-01T08:21:03;5.70;99.90
9849;DHT22;4963;51.444;6.528;2023-02-01T08:23:30;5.70;99.90
9849;DHT22;4963;51.444;6.528;2023-02-01T08:26:06;5.70;99.90
9849;DHT22;4963;51.444;6.528;2023-02-01T08:28:33;5.70;99.90
9849;DHT22;4963;51.444;6.528;2023-02-01T08:31:04;5.70;99.90
9849;DHT22;4963;51.444;6.528;2023-02-01T08:33:31;5.80;99.90
9849;DHT22;4963;51.444;6.528;2023-02-01T08:35:59;5.70;99.90
9849;DHT22;4963;51.444;6.528;2023-02-01T08:38:26;5.70;99.90
9849;DHT22;4963;51.444;6.528;2023-02-01T08:40:53;5.80;99.90
9849;DHT22;4963;51.444;6.528;2023-02-01T08:43:21;5.80;99.90
9849;DHT22;4963;51.444;6.528;2023-02-01T08:45:49;5.80;99.90
9849;DHT22;4963;51.444;6.528;2023-02-01T08:48:16;5.80;99.90
9849;DHT22;4963;51.444;6.528;2023-02-01T08:50:43;5.80;99.90
9849;DHT22;4963;51.444;6.528;2023-02-01T08:53:10;5.90;99.90
9849;DHT22;4963;51.444;6.528;2023-02-01T08:55:39;5.90;99.90
9849;DHT22;4963;51.444;6.528;2023-02-01T08:58:05;6.00;99.90
9849;DHT22;4963;51.444;6.528;2023-02-01T09:00:35;6.00;99.90
9849;DHT22;4963;51.444;6.528;2023-02-01T09:03:03;6.00;99.90
9849;DHT22;4963;51.444;6.528;2023-02-01T09:05:30;6.00;99.90
9849;DHT22;4963;51.444;6.528;2023-02-01T09:07:57;6.00;99.90
9849;DHT22;4963;51.444;6.528;2023-02-01T09:10:24;5.90;99.90
9849;DHT22;4963;51.444;6.528;2023-02-01T09:12:51;5.90;99.90
9849;DHT22;4963;51.444;6.528;2023-02-01T09:15:18;6.00;99.90
9849;DHT22;4963;51.444;6.528;2023-02-01T09:17:46;6.00;99.90
9849;DHT22;4963;51.444;6.528;2023-02-01T09:20:14;6.00;99.90
9849;DHT22;4963;51.444;6.528;2023-02-01T09:22:42;6.00;99.90
9849;DHT22;4963;51.444;6.528;2023-02-01T09:25:09;6.00;99.90
9849;DHT22;4963;51.444;6.528;2023-02-01T09:27:36;6.10;99.90
9849;DHT22;4963;51.444;6.528;2023-02-01T09:30:04;6.10;99.90
9849;DHT22;4963;51.444;6.528;2023-02-01T09:32:31;6.10;99.90
9849;DHT22;4963;51.444;6.528;2023-02-01T09:34:59;6.20;99.90
9849;DHT22;4963;51.444;6.528;2023-02-01T09:37:26;6.20;99.90
9849;DHT22;4963;51.444;6.528;2023-02-01T09:39:52;6.20;99.90
9849;DHT22;4963;51.444;6.528;2023-02-01T09:42:50;6.30;99.90
9849;DHT22;4963;51.444;6.528;2023-02-01T09:45:22;6.40;99.90
9849;DHT22;4963;51.444;6.528;2023-02-01T09:47:53;6.40;99.90
9849;DHT22;4963;51.444;6.528;2023-02-01T09:50:28;6.40;99.90
9849;DHT22;4963;51.444;6.528;2023-02-01T09:53:01;6.50;99.90
9849;DHT22;4963;51.444;6.528;2023-02-01T09:55:33;6.50;99.90
9849;DHT22;4963;51.444;6.528;2023-02-01T09:58:04;6.60;99.90
9849;DHT22;4963;51.444;6.528;2023-02-01T10:00:36;6.60;99.90
9849;DHT22;4963;51.444;6.528;2023-02-01T10:03:04;6.60;99.90
9849;DHT22;4963;51.444;6.528;2023-02-01T10:09:02;6.70;99.90
9849;DHT22;4963;51.444;6.528;2023-02-01T10:11:39;6.80;99.90
9849;DHT22;4963;51.444;6.528;2023-02-01T10:14:27;6.80;99.90
9849;DHT22;4963;51.444;6.528;2023-02-01T10:17:01;6.80;99.90
9849;DHT22;4963;51.444;6.528;2023-02-01T10:19:39;6.80;99.90
9849;DHT22;4963;51.444;6.528;2023-02-01T10:22:10;6.80;99.90
9849;DHT22;4963;51.444;6.528;2023-02-01T10:24:39;6.80;99.90
9849;DHT22;4963;51.444;6.528;2023-02-01T10:27:17;6.80;99.90
9849;DHT22;4963;51.444;6.528;2023-02-01T10:29:51;6.80;99.90
9849;DHT22;4963;51.444;6.528;2023-02-01T10:32:21;6.80;99.90
9849;DHT22;4963;51.444;6.528;2023-02-01T10:34:53;6.90;99.90
9849;DHT22;4963;51.444;6.528;2023-02-01T10:37:27;6.90;99.90
9849;DHT22;4963;51.444;6.528;2023-02-01T10:39:56;6.90;99.90
9849;DHT22;4963;51.444;6.528;2023-02-01T10:42:26;6.90;99.90
9849;DHT22;4963;51.444;6.528;2023-02-01T10:44:55;7.00;99.90
9849;DHT22;4963;51.444;6.528;2023-02-01T10:47:23;7.00;99.90
9849;DHT22;4963;51.444;6.528;2023-02-01T10:49:55;7.00;99.90
9849;DHT22;4963;51.444;6.528;2023-02-01T10:52:33;7.00;99.90
9849;DHT22;4963;51.444;6.528;2023-02-01T10:55:38;7.00;99.90
9849;DHT22;4963;51.444;6.528;2023-02-01T10:58:06;7.00;99.90
9849;DHT22;4963;51.444;6.528;2023-02-01T11:00:44;7.10;99.90
9849;DHT22;4963;51.444;6.528;2023-02-01T11:03:38;7.10;99.90
9849;DHT22;4963;51.444;6.528;2023-02-01T11:06:18;7.20;99.90
9849;DHT22;4963;51.444;6.528;2023-02-01T11:08:49;7.20;99.90
9849;DHT22;4963;51.444;6.528;2023-02-01T11:11:16;7.20;99.90
9849;DHT22;4963;51.444;6.528;2023-02-01T11:13:43;7.20;99.90
9849;DHT22;4963;51.444;6.528;2023-02-01T11:16:13;7.20;99.90
9849;DHT22;4963;51.444;6.528;2023-02-01T11:18:41;7.30;99.90
9849;DHT22;4963;51.444;6.528;2023-02-01T11:21:09;7.20;99.90
9849;DHT22;4963;51.444;6.528;2023-02-01T11:23:41;7.20;99.90
9849;DHT22;4963;51.444;6.528;2023-02-01T11:26:13;7.20;99.90
9849;DHT22;4963;51.444;6.528;2023-02-01T11:28:50;7.20;99.90
9849;DHT22;4963;51.444;6.528;2023-02-01T11:31:18;7.20;99.90
9849;DHT22;4963;51.444;6.528;2023-02-01T11:33:50;7.20;99.90
9849;DHT22;4963;51.444;6.528;2023-02-01T11:36:19;7.20;99.90
9849;DHT22;4963;51.444;6.528;2023-02-01T11:38:52;7.20;99.90
9849;DHT22;4963;51.444;6.528;2023-02-01T11:41:26;7.20;99.90
9849;DHT22;4963;51.444;6.528;2023-02-01T11:43:55;7.20;99.90
9849;DHT22;4963;51.444;6.528;2023-02-01T11:46:28;7.20;99.90
9849;DHT22;4963;51.444;6.528;2023-02-01T11:48:57;7.20;99.90
9849;DHT22;4963;51.444;6.528;2023-02-01T11:51:44;7.20;99.90
9849;DHT22;4963;51.444;6.528;2023-02-01T11:54:25;7.20;99.90
9849;DHT22;4963;51.444;6.528;2023-02-01T11:57:07;7.20;99.90
9849;DHT22;4963;51.444;6.528;2023-02-01T12:00:08;7.20;99.90
9849;DHT22;4963;51.444;6.528;2023-02-01T12:02:57;7.20;99.90
9849;DHT22;4963;51.444;6.528;2023-02-01T12:05:37;7.20;99.90
9849;DHT22;4963;51.444;6.528;2023-02-01T12:08:51;7.30;99.90
9849;DHT22;4963;51.444;6.528;2023-02-01T12:11:27;7.30;99.90
9849;DHT22;4963;51.444;6.528;2023-02-01T12:14:06;7.30;99.90
9849;DHT22;4963;51.444;6.528;2023-02-01T12:16:43;7.30;99.90
9849;DHT22;4963;51.444;6.528;2023-02-01T12:19:41;7.30;99.90
9849;DHT22;4963;51.444;6.528;2023-02-01T12:22:25;7.30;99.90
9849;DHT22;4963;51.444;6.528;2023-02-01T12:28:16;7.30;99.90
9849;DHT22;4963;51.444;6.528;2023-02-01T12:30:56;7.30;99.90
9849;DHT22;4963;51.444;6.528;2023-02-01T12:33:36;7.30;99.90
9849;DHT22;4963;51.444;6.528;2023-02-01T12:36:12;7.30;99.90
9849;DHT22;4963;51.444;6.528;2023-02-01T12:38:50;7.30;99.90
9849;DHT22;4963;51.444;6.528;2023-02-01T12:41:39;7.30;99.90
9849;DHT22;4963;51.444;6.528;2023-02-01T12:44:12;7.30;99.90
9849;DHT22;4963;51.444;6.528;2023-02-01T12:46:48;7.30;99.90
9849;DHT22;4963;51.444;6.528;2023-02-01T12:49:21;7.40;99.90
9849;DHT22;4963;51.444;6.528;2023-02-01T12:51:55;7.40;99.90
9849;DHT22;4963;51.444;6.528;2023-02-01T12:54:29;7.40;99.90
9849;DHT22;4963;51.444;6.528;2023-02-01T12:57:01;7.40;99.90
9849;DHT22;4963;51.444;6.528;2023-02-01T12:59:33;7.40;99.90
9849;DHT22;4963;51.444;6.528;2023-02-01T13:02:14;7.50;99.90
9849;DHT22;4963;51.444;6.528;2023-02-01T13:04:52;7.50;99.90
9849;DHT22;4963;51.444;6.528;2023-02-01T13:07:22;7.40;99.90
9849;DHT22;4963;51.444;6.528;2023-02-01T13:09:55;7.40;99.90
9849;DHT22;4963;51.444;6.528;2023-02-01T13:12:28;7.40;99.90
9849;DHT22;4963;51.444;6.528;2023-02-01T13:15:02;7.40;99.90
9849;DHT22;4963;51.444;6.528;2023-02-01T13:17:33;7.40;99.90
9849;DHT22;4963;51.444;6.528;2023-02-01T13:20:05;7.40;99.90
9849;DHT22;4963;51.444;6.528;2023-02-01T13:22:36;7.40;99.90
9849;DHT22;4963;51.444;6.528;2023-02-01T13:25:12;7.40;99.90
9849;DHT22;4963;51.444;6.528;2023-02-01T13:27:40;7.40;99.90
9849;DHT22;4963;51.444;6.528;2023-02-01T13:30:13;7.40;99.90
9849;DHT22;4963;51.444;6.528;2023-02-01T13:38:46;7.40;99.90
9849;DHT22;4963;51.444;6.528;2023-02-01T13:41:28;7.40;99.90
9849;DHT22;4963;51.444;6.528;2023-02-01T13:43:59;7.50;99.90
9849;DHT22;4963;51.444;6.528;2023-02-01T13:46:28;7.50;99.90
9849;DHT22;4963;51.444;6.528;2023-02-01T13:48:58;7.50;99.90
9849;DHT22;4963;51.444;6.528;2023-02-01T13:51:35;7.60;99.90
9849;DHT22;4963;51.444;6.528;2023-02-01T13:54:04;7.60;99.90
9849;DHT22;4963;51.444;6.528;2023-02-01T13:56:40;7.70;99.90
9849;DHT22;4963;51.444;6.528;2023-02-01T14:03:02;7.80;99.90
9849;DHT22;4963;51.444;6.528;2023-02-01T14:05:55;7.80;99.90
9849;DHT22;4963;51.444;6.528;2023-02-01T14:08:45;7.80;99.90
9849;DHT22;4963;51.444;6.528;2023-02-01T14:11:39;7.80;99.90
9849;DHT22;4963;51.444;6.528;2023-02-01T14:17:33;7.80;99.90
9849;DHT22;4963;51.444;6.528;2023-02-01T14:23:25;7.80;99.90
9849;DHT22;4963;51.444;6.528;2023-02-01T14:26:13;7.80;99.90
9849;DHT22;4963;51.444;6.528;2023-02-01T14:28:44;7.80;99.90
9849;DHT22;4963;51.444;6.528;2023-02-01T14:31:39;7.80;99.90
9849;DHT22;4963;51.444;6.528;2023-02-01T14:34:14;7.80;99.90
9849;DHT22;4963;51.444;6.528;2023-02-01T14:36:50;7.80;99.90
9849;DHT22;4963;51.444;6.528;2023-02-01T14:39:49;7.80;99.90
9849;DHT22;4963;51.444;6.528;2023-02-01T14:42:24;7.80;99.90
9849;DHT22;4963;51.444;6.528;2023-02-01T14:44:52;7.80;99.90
9849;DHT22;4963;51.444;6.528;2023-02-01T14:47:32;7.80;99.90
9849;DHT22;4963;51.444;6.528;2023-02-01T14:52:51;7.80;99.90
9849;DHT22;4963;51.444;6.528;2023-02-01T14:55:30;7.70;99.90
9849;DHT22;4963;51.444;6.528;2023-02-01T14:58:03;7.80;99.90
9849;DHT22;4963;51.444;6.528;2023-02-01T15:00:32;7.80;99.90
9849;DHT22;4963;51.444;6.528;2023-02-01T15:03:19;7.80;99.90
9849;DHT22;4963;51.444;6.528;2023-02-01T15:05:55;7.80;99.90
9849;DHT22;4963;51.444;6.528;2023-02-01T15:08:26;7.80;99.90
9849;DHT22;4963;51.444;6.528;2023-02-01T15:10:57;7.80;99.90
9849;DHT22;4963;51.444;6.528;2023-02-01T15:13:27;7.70;99.90
9849;DHT22;4963;51.444;6.528;2023-02-01T15:16:05;7.70;99.90
9849;DHT22;4963;51.444;6.528;2023-02-01T15:18:32;7.70;99.90
9849;DHT22;4963;51.444;6.528;2023-02-01T15:21:01;7.80;99.90
9849;DHT22;4963;51.444;6.528;2023-02-01T15:23:28;7.70;99.90
9849;DHT22;4963;51.444;6.528;2023-02-01T15:25:57;7.80;99.90
9849;DHT22;4963;51.444;6.528;2023-02-01T15:28:25;7.80;99.90
9849;DHT22;4963;51.444;6.528;2023-02-01T15:30:57;7.80;99.90
9849;DHT22;4963;51.444;6.528;2023-02-01T15:33:25;7.80;99.90
9849;DHT22;4963;51.444;6.528;2023-02-01T15:35:53;7.80;99.90
9849;DHT22;4963;51.444;6.528;2023-02-01T15:38:38;7.80;99.90
9849;DHT22;4963;51.444;6.528;2023-02-01T15:41:13;7.70;99.90
9849;DHT22;4963;51.444;6.528;2023-02-01T15:43:42;7.70;99.90
9849;DHT22;4963;51.444;6.528;2023-02-01T15:46:12;7.70;99.90
9849;DHT22;4963;51.444;6.528;2023-02-01T15:48:43;7.70;99.90
9849;DHT22;4963;51.444;6.528;2023-02-01T15:51:13;7.70;99.90
9849;DHT22;4963;51.444;6.528;2023-02-01T15:53:46;7.70;99.90
9849;DHT22;4963;51.444;6.528;2023-02-01T15:56:15;7.70;99.90
9849;DHT22;4963;51.444;6.528;2023-02-01T15:58:45;7.70;99.90
9849;DHT22;4963;51.444;6.528;2023-02-01T16:01:15;7.80;99.90
9849;DHT22;4963;51.444;6.528;2023-02-01T16:03:42;7.80;99.90
9849;DHT22;4963;51.444;6.528;2023-02-01T16:06:11;7.90;99.90
9849;DHT22;4963;51.444;6.528;2023-02-01T16:08:50;7.90;99.90
9849;DHT22;4963;51.444;6.528;2023-02-01T16:11:27;7.90;99.90
9849;DHT22;4963;51.444;6.528;2023-02-01T16:13:56;7.90;99.90
9849;DHT22;4963;51.444;6.528;2023-02-01T16:16:23;7.90;99.90
9849;DHT22;4963;51.444;6.528;2023-02-01T16:18:49;7.90;99.90
9849;DHT22;4963;51.444;6.528;2023-02-01T16:21:16;7.90;99.90
9849;DHT22;4963;51.444;6.528;2023-02-01T16:23:43;8.00;99.90
9849;DHT22;4963;51.444;6.528;2023-02-01T16:26:10;8.00;99.90
9849;DHT22;4963;51.444;6.528;2023-02-01T16:28:38;8.00;99.90
9849;DHT22;4963;51.444;6.528;2023-02-01T16:31:08;8.00;99.90
9849;DHT22;4963;51.444;6.528;2023-02-01T16:33:39;8.00;99.90
9849;DHT22;4963;51.444;6.528;2023-02-01T16:36:07;8.00;99.90
9849;DHT22;4963;51.444;6.528;2023-02-01T16:38:35;8.10;99.90
9849;DHT22;4963;51.444;6.528;2023-02-01T16:41:04;8.00;99.90
9849;DHT22;4963;51.444;6.528;2023-02-01T16:43:31;8.10;99.90
9849;DHT22;4963;51.444;6.528;2023-02-01T16:46:01;8.00;99.90
9849;DHT22;4963;51.444;6.528;2023-02-01T16:48:30;8.10;99.90
9849;DHT22;4963;51.444;6.528;2023-02-01T16:50:59;8.10;99.90
9849;DHT22;4963;51.444;6.528;2023-02-01T16:53:28;8.10;99.90
9849;DHT22;4963;51.444;6.528;2023-02-01T16:55:56;8.10;99.90
9849;DHT22;4963;51.444;6.528;2023-02-01T16:58:24;8.00;99.90
9849;DHT22;4963;51.444;6.528;2023-02-01T17:00:52;8.10;99.90
9849;DHT22;4963;51.444;6.528;2023-02-01T17:03:21;8.00;99.90
9849;DHT22;4963;51.444;6.528;2023-02-01T17:05:51;8.10;99.90
9849;DHT22;4963;51.444;6.528;2023-02-01T17:08:22;8.00;99.90
9849;DHT22;4963;51.444;6.528;2023-02-01T17:10:50;8.00;99.90
9849;DHT22;4963;51.444;6.528;2023-02-01T17:13:17;8.00;99.90
9849;DHT22;4963;51.444;6.528;2023-02-01T17:15:48;8.00;99.90
9849;DHT22;4963;51.444;6.528;2023-02-01T17:18:17;8.10;99.90